createdAt,value
2022-11-19T00:02:01.411Z,-3.91
2022-11-19T00:04:30.845Z,-3.86
2022-11-19T00:06:58.903Z,-3.85
2022-11-19T00:09:27.338Z,-3.84
2022-11-19T00:12:12.754Z,-3.80
2022-11-19T00:14:40.928Z,-3.72
2022-11-19T00:17:08.875Z,-3.73
2022-11-19T00:19:38.262Z,-3.70
2022-11-19T00:22:06.247Z,-3.66
2022-11-19T00:24:34.291Z,-3.61
2022-11-19T00:27:02.290Z,-3.71
2022-11-19T00:29:30.298Z,-3.71
2022-11-19T00:31:58.378Z,-3.64
2022-11-19T00:34:26.397Z,-3.57
2022-11-19T00:36:55.834Z,-3.69
2022-11-19T00:39:23.781Z,-3.75
2022-11-19T00:41:51.783Z,-3.79
2022-11-19T00:44:19.750Z,-3.79
2022-11-19T00:46:47.870Z,-3.85
2022-11-19T00:49:15.951Z,-4.01
2022-11-19T00:51:43.888Z,-4.08
2022-11-19T00:54:13.317Z,-4.06
2022-11-19T00:56:41.315Z,-4.06
2022-11-19T00:59:09.296Z,-4.04
2022-11-19T01:01:37.396Z,-4.04
2022-11-19T01:04:06.147Z,-4.05
2022-11-19T01:06:34.305Z,-4.02
2022-11-19T01:09:02.358Z,-3.91
2022-11-19T01:11:33.381Z,-3.82
2022-11-19T01:14:02.561Z,-3.75
2022-11-19T01:16:33.662Z,-3.76
2022-11-19T01:19:02.073Z,-3.78
2022-11-19T01:21:32.743Z,-3.88
2022-11-19T01:24:01.615Z,-3.95
2022-11-19T01:26:31.477Z,-3.90
2022-11-19T01:28:59.595Z,-3.95
2022-11-19T01:31:29.663Z,-3.97
2022-11-19T01:33:58.191Z,-3.94
2022-11-19T01:36:28.455Z,-3.80
2022-11-19T01:38:57.720Z,-3.84
2022-11-19T01:41:27.744Z,-3.85
2022-11-19T01:43:59.223Z,-3.97
2022-11-19T01:46:29.095Z,-4.01
2022-11-19T01:49:03.039Z,-4.04
2022-11-19T01:51:34.127Z,-4.11
2022-11-19T01:54:08.616Z,-4.17
2022-11-19T01:56:36.924Z,-4.13
2022-11-19T01:59:10.417Z,-4.15
2022-11-19T02:01:38.694Z,-4.19
2022-11-19T02:04:08.824Z,-4.17
2022-11-19T02:06:37.599Z,-4.07
2022-11-19T02:09:05.673Z,-4.12
2022-11-19T02:12:09.651Z,-4.19
2022-11-19T02:15:03.351Z,-4.27
2022-11-19T02:17:45.856Z,-4.37
2022-11-19T02:20:34.173Z,-4.50
2022-11-19T02:23:31.425Z,-4.56
2022-11-19T02:26:25.782Z,-4.69
2022-11-19T02:29:00.964Z,-4.70
2022-11-19T02:31:36.614Z,-4.67
2022-11-19T02:34:10.517Z,-4.71
2022-11-19T02:36:45.106Z,-4.68
2022-11-19T02:39:20.322Z,-4.69
2022-11-19T02:41:54.656Z,-4.67
2022-11-19T02:44:46.242Z,-4.63
2022-11-19T02:47:20.011Z,-4.48
2022-11-19T02:49:50.566Z,-4.63
2022-11-19T02:52:19.685Z,-4.64
2022-11-19T02:54:47.593Z,-4.64
2022-11-19T02:57:15.703Z,-4.50
2022-11-19T03:00:05.709Z,-4.65
2022-11-19T03:03:01.670Z,-4.65
2022-11-19T03:05:33.786Z,-4.79
2022-11-19T03:08:02.351Z,-4.83
2022-11-19T03:10:37.814Z,-4.91
2022-11-19T03:13:26.292Z,-5.09
2022-11-19T03:16:14.552Z,-5.14
2022-11-19T03:18:49.807Z,-5.18
2022-11-19T03:21:24.000Z,-5.18
2022-11-19T03:23:56.306Z,-5.07
2022-11-19T03:26:29.502Z,-5.09
2022-11-19T03:29:01.825Z,-5.04
2022-11-19T03:31:32.611Z,-5.02
2022-11-19T03:34:07.079Z,-5.01
2022-11-19T03:36:39.360Z,-4.96
2022-11-19T03:39:11.264Z,-4.93
2022-11-19T03:41:41.827Z,-4.99
2022-11-19T03:44:15.700Z,-5.19
2022-11-19T03:46:46.374Z,-5.11
2022-11-19T03:49:20.003Z,-5.03
2022-11-19T03:51:53.510Z,-4.95
2022-11-19T03:54:21.615Z,-4.84
2022-11-19T03:56:51.163Z,-4.89
2022-11-19T03:59:19.979Z,-4.91
2022-11-19T04:01:51.678Z,-4.84
2022-11-19T04:04:39.107Z,-5.00
2022-11-19T04:07:09.790Z,-4.97
2022-11-19T04:09:38.457Z,-4.88
2022-11-19T04:12:08.235Z,-4.82
2022-11-19T04:14:36.300Z,-4.78
2022-11-19T04:17:04.384Z,-4.82
2022-11-19T04:19:33.709Z,-4.73
2022-11-19T04:22:01.689Z,-4.78
2022-11-19T04:24:29.722Z,-4.72
2022-11-19T04:26:57.739Z,-4.66
2022-11-19T04:29:25.724Z,-4.77
2022-11-19T04:31:53.810Z,-4.59
2022-11-19T04:34:21.751Z,-4.47
2022-11-19T04:36:51.049Z,-4.42
2022-11-19T04:39:19.268Z,-4.43
2022-11-19T04:41:47.362Z,-4.45
2022-11-19T04:44:15.293Z,-4.35
2022-11-19T04:46:43.292Z,-4.30
2022-11-19T04:49:11.274Z,-4.24
2022-11-19T04:51:39.252Z,-4.15
2022-11-19T04:54:09.619Z,-4.10
2022-11-19T04:56:37.986Z,-4.07
2022-11-19T04:59:06.335Z,-4.05
2022-11-19T05:01:34.426Z,-4.03
2022-11-19T05:04:02.488Z,-3.97
2022-11-19T05:06:30.503Z,-4.01
2022-11-19T05:08:58.470Z,-3.86
2022-11-19T05:11:27.805Z,-3.85
2022-11-19T05:13:55.873Z,-3.83
2022-11-19T05:16:23.825Z,-3.69
2022-11-19T05:18:51.827Z,-3.61
2022-11-19T05:21:19.885Z,-3.61
2022-11-19T05:23:47.797Z,-3.63
2022-11-19T05:26:15.744Z,-3.65
2022-11-19T05:28:46.006Z,-3.61
2022-11-19T05:31:13.958Z,-3.59
2022-11-19T05:33:41.953Z,-3.62
2022-11-19T05:36:10.429Z,-3.59
2022-11-19T05:38:38.498Z,-3.66
2022-11-19T05:41:06.819Z,-3.56
2022-11-19T05:43:34.747Z,-3.49
2022-11-19T05:46:04.168Z,-3.42
2022-11-19T05:48:32.189Z,-3.35
2022-11-19T05:51:00.205Z,-3.29
2022-11-19T05:53:28.530Z,-3.26
2022-11-19T05:55:56.592Z,-3.27
2022-11-19T05:58:24.548Z,-3.22
2022-11-19T06:00:55.992Z,-3.24
2022-11-19T06:03:25.332Z,-3.17
2022-11-19T06:05:53.668Z,-3.20
2022-11-19T06:08:21.746Z,-3.13
2022-11-19T06:10:49.780Z,-3.10
2022-11-19T06:13:17.871Z,-3.09
2022-11-19T06:15:45.833Z,-3.14
2022-11-19T06:18:13.755Z,-3.23
2022-11-19T06:20:43.112Z,-3.23
2022-11-19T06:23:11.120Z,-3.32
2022-11-19T06:25:39.068Z,-3.32
2022-11-19T06:28:07.450Z,-3.44
2022-11-19T06:30:35.400Z,-3.37
2022-11-19T06:33:03.295Z,-3.35
2022-11-19T06:35:31.290Z,-3.38
2022-11-19T06:38:00.591Z,-3.43
2022-11-19T06:40:28.530Z,-3.52
2022-11-19T06:42:56.476Z,-3.56
2022-11-19T06:45:24.568Z,-3.64
2022-11-19T06:47:52.571Z,-3.63
2022-11-19T06:50:21.427Z,-3.63
2022-11-19T06:52:49.421Z,-3.62
2022-11-19T06:55:19.030Z,-3.66
2022-11-19T06:57:47.009Z,-3.72
2022-11-19T07:00:16.064Z,-3.75
2022-11-19T07:02:44.025Z,-3.77
2022-11-19T07:05:11.963Z,-3.82
2022-11-19T07:07:39.936Z,-3.72
2022-11-19T07:10:09.282Z,-3.79
2022-11-19T07:12:38.675Z,-3.71
2022-11-19T07:15:07.516Z,-3.67
2022-11-19T07:17:35.621Z,-3.61
2022-11-19T07:20:03.628Z,-3.63
2022-11-19T07:22:31.727Z,-3.66
2022-11-19T07:24:59.657Z,-3.59
2022-11-19T07:27:27.851Z,-3.59
2022-11-19T07:29:57.143Z,-3.49
2022-11-19T07:32:25.150Z,-3.38
2022-11-19T07:34:53.549Z,-3.39
2022-11-19T07:37:21.977Z,-3.37
2022-11-19T07:39:49.970Z,-3.31
2022-11-19T07:42:35.291Z,-3.37
2022-11-19T07:45:05.451Z,-3.20
2022-11-19T07:47:34.913Z,-3.06
2022-11-19T07:50:03.128Z,-3.10
2022-11-19T07:52:31.569Z,-3.02
2022-11-19T07:54:59.558Z,-2.91
2022-11-19T07:57:30.471Z,-2.85
2022-11-19T07:59:58.896Z,-2.76
2022-11-19T08:02:28.303Z,-2.74
2022-11-19T08:04:56.278Z,-2.64
2022-11-19T08:07:24.373Z,-2.62
2022-11-19T08:09:52.602Z,-2.66
2022-11-19T08:12:20.667Z,-2.68
2022-11-19T08:14:48.705Z,-2.61
2022-11-19T08:17:34.203Z,-2.63
2022-11-19T08:20:03.497Z,-2.58
2022-11-19T08:22:31.429Z,-2.51
2022-11-19T08:24:59.456Z,-3.06
2022-11-19T08:27:29.202Z,-2.46
2022-11-19T08:29:57.241Z,-2.43
2022-11-19T08:32:25.195Z,-2.39
2022-11-19T08:34:53.145Z,-2.38
2022-11-19T08:37:22.476Z,-2.38
2022-11-19T08:39:50.464Z,-2.35
2022-11-19T08:42:35.813Z,-2.32
2022-11-19T08:45:04.088Z,-2.27
2022-11-19T08:47:32.131Z,-2.29
2022-11-19T08:50:00.145Z,-2.23
2022-11-19T08:52:29.482Z,-2.16
2022-11-19T08:54:57.421Z,-2.08
2022-11-19T08:57:25.461Z,-2.09
2022-11-19T08:59:53.527Z,-2.08
2022-11-19T09:02:21.550Z,-2.03
2022-11-19T09:04:49.537Z,-1.95
2022-11-19T09:07:18.117Z,-1.92
2022-11-19T09:09:47.490Z,-1.86
2022-11-19T09:12:17.023Z,-1.83
2022-11-19T09:14:45.021Z,-1.80
2022-11-19T09:17:13.615Z,-1.78
2022-11-19T09:19:41.576Z,-1.75
2022-11-19T09:22:09.533Z,-1.65
2022-11-19T09:24:37.510Z,-1.66
2022-11-19T09:27:06.877Z,-1.62
2022-11-19T09:29:34.916Z,-1.59
2022-11-19T09:32:02.889Z,-1.55
2022-11-19T09:34:31.099Z,-1.48
2022-11-19T09:36:59.367Z,-1.39
2022-11-19T09:39:27.323Z,-1.37
2022-11-19T09:42:02.878Z,-1.28
2022-11-19T09:45:13.955Z,-1.23
2022-11-19T09:47:54.919Z,-1.17
2022-11-19T09:50:26.009Z,-1.12
2022-11-19T09:52:59.469Z,-1.08
2022-11-19T09:55:32.055Z,-1.00
2022-11-19T09:58:01.872Z,-0.96
2022-11-19T10:00:32.878Z,-0.89
2022-11-19T10:03:12.255Z,-0.81
2022-11-19T10:05:52.217Z,-0.67
2022-11-19T10:08:35.069Z,-0.58
2022-11-19T10:11:18.910Z,-0.47
2022-11-19T10:13:58.628Z,-0.36
2022-11-19T10:16:40.228Z,-0.29
2022-11-19T10:19:18.983Z,-0.15
2022-11-19T10:21:57.868Z,-0.07
2022-11-19T10:24:35.498Z,0.03
2022-11-19T10:27:12.529Z,0.20
2022-11-19T10:29:40.981Z,0.32
2022-11-19T10:32:23.111Z,0.39
2022-11-19T10:34:57.822Z,0.48
2022-11-19T10:37:30.746Z,0.54
2022-11-19T10:40:04.138Z,0.59
2022-11-19T10:42:37.025Z,0.64
2022-11-19T10:45:10.525Z,0.69
2022-11-19T10:47:48.010Z,0.72
2022-11-19T10:50:20.186Z,0.90
2022-11-19T10:52:52.942Z,0.80
2022-11-19T10:55:26.162Z,0.92
2022-11-19T10:58:06.661Z,0.98
2022-11-19T11:00:35.739Z,1.04
2022-11-19T11:03:08.048Z,1.15
2022-11-19T11:05:56.603Z,1.28
2022-11-19T11:08:25.064Z,1.34
2022-11-19T11:10:53.490Z,1.24
2022-11-19T11:14:03.046Z,1.31
2022-11-19T11:16:44.700Z,1.41
2022-11-19T11:19:18.184Z,1.43
2022-11-19T11:21:47.036Z,1.39
2022-11-19T11:24:15.469Z,1.30
2022-11-19T11:26:43.744Z,1.31
2022-11-19T11:29:26.586Z,1.31
2022-11-19T11:31:54.793Z,1.35
2022-11-19T11:34:44.208Z,1.31
2022-11-19T11:37:13.082Z,1.36
2022-11-19T11:39:44.181Z,1.35
2022-11-19T11:42:18.246Z,1.43
2022-11-19T11:44:53.059Z,1.44
2022-11-19T11:47:23.943Z,1.51
2022-11-19T11:50:04.345Z,1.44
2022-11-19T11:52:38.553Z,1.47
2022-11-19T11:55:08.573Z,1.45
2022-11-19T11:57:50.856Z,1.35
2022-11-19T12:00:34.754Z,1.45
2022-11-19T12:03:05.367Z,1.49
2022-11-19T12:05:45.757Z,1.48
2022-11-19T12:08:27.152Z,1.56
2022-11-19T12:11:04.441Z,1.58
2022-11-19T12:13:58.754Z,1.66
2022-11-19T12:16:39.585Z,1.82
2022-11-19T12:19:22.481Z,2.02
2022-11-19T12:22:01.660Z,2.17
2022-11-19T12:24:53.899Z,2.22
2022-11-19T12:27:32.571Z,2.16
2022-11-19T12:30:07.402Z,2.19
2022-11-19T12:32:56.482Z,2.14
2022-11-19T12:35:37.373Z,2.11
2022-11-19T12:38:23.163Z,2.09
2022-11-19T12:40:59.098Z,2.04
2022-11-19T12:43:51.195Z,2.01
2022-11-19T12:46:29.430Z,2.07
2022-11-19T12:49:14.456Z,2.11
2022-11-19T12:51:52.407Z,2.06
2022-11-19T12:54:35.253Z,1.98
2022-11-19T12:57:20.380Z,2.10
2022-11-19T13:00:06.936Z,2.13
2022-11-19T13:02:41.363Z,2.22
2022-11-19T13:05:16.089Z,2.17
2022-11-19T13:07:51.010Z,2.18
2022-11-19T13:10:24.976Z,2.25
2022-11-19T13:12:55.642Z,2.26
2022-11-19T13:15:28.740Z,2.24
2022-11-19T13:17:59.656Z,2.22
2022-11-19T13:20:38.687Z,2.26
2022-11-19T13:23:08.103Z,2.20
2022-11-19T13:25:42.916Z,2.18
2022-11-19T13:28:19.677Z,2.21
2022-11-19T13:30:51.861Z,2.19
2022-11-19T13:33:26.100Z,2.31
2022-11-19T13:36:03.442Z,2.35
2022-11-19T13:38:44.556Z,2.40
2022-11-19T13:41:17.548Z,2.41
2022-11-19T13:44:03.573Z,2.36
2022-11-19T13:46:36.375Z,2.34
2022-11-19T13:49:12.931Z,2.23
2022-11-19T13:51:45.112Z,2.32
2022-11-19T13:54:24.911Z,2.34
2022-11-19T13:56:57.965Z,2.32
2022-11-19T13:59:32.231Z,2.38
2022-11-19T14:02:24.301Z,2.33
2022-11-19T14:05:20.585Z,2.15
2022-11-19T14:08:10.397Z,2.09
2022-11-19T14:10:45.951Z,2.02
2022-11-19T14:13:43.109Z,2.00
2022-11-19T14:16:40.985Z,1.93
2022-11-19T14:19:32.457Z,1.90
2022-11-19T14:22:18.487Z,1.86
2022-11-19T14:25:16.841Z,1.75
2022-11-19T14:27:45.672Z,1.90
2022-11-19T14:30:21.766Z,1.90
2022-11-19T14:32:52.547Z,1.87
2022-11-19T14:35:38.747Z,1.88
2022-11-19T14:38:37.479Z,1.84
2022-11-19T14:41:19.351Z,1.90
2022-11-19T14:44:12.928Z,1.96
2022-11-19T14:46:47.756Z,1.88
2022-11-19T14:49:33.945Z,1.86
2022-11-19T14:52:02.968Z,1.86
2022-11-19T14:54:39.368Z,1.81
2022-11-19T14:57:24.476Z,1.76
2022-11-19T14:59:54.925Z,1.72
2022-11-19T15:02:36.365Z,1.63
2022-11-19T15:05:15.234Z,1.58
2022-11-19T15:07:49.018Z,1.54
2022-11-19T15:10:33.763Z,1.55
2022-11-19T15:13:24.180Z,1.46
2022-11-19T15:15:56.573Z,1.37
2022-11-19T15:18:50.435Z,1.34
2022-11-19T15:21:35.033Z,1.30
2022-11-19T15:24:14.852Z,1.26
2022-11-19T15:26:52.795Z,1.25
2022-11-19T15:29:36.732Z,1.14
2022-11-19T15:32:21.499Z,1.16
2022-11-19T15:35:11.205Z,1.12
2022-11-19T15:37:46.870Z,1.15
2022-11-19T15:40:19.396Z,1.12
2022-11-19T15:42:54.029Z,1.10
2022-11-19T15:45:24.598Z,1.08
2022-11-19T15:47:57.202Z,1.04
2022-11-19T15:50:29.029Z,1.06
2022-11-19T15:53:01.023Z,1.12
2022-11-19T15:55:31.013Z,1.03
2022-11-19T15:58:04.140Z,1.02
2022-11-19T16:00:32.949Z,1.01
2022-11-19T16:03:03.757Z,0.96
2022-11-19T16:05:34.022Z,0.99
2022-11-19T16:08:09.066Z,0.99
2022-11-19T16:10:41.705Z,0.97
2022-11-19T16:13:40.528Z,0.96
2022-11-19T16:16:33.883Z,1.02
2022-11-19T16:19:01.932Z,0.98
2022-11-19T16:21:35.964Z,0.96
2022-11-19T16:24:22.385Z,0.96
2022-11-19T16:26:50.478Z,0.93
2022-11-19T16:29:27.299Z,0.84
2022-11-19T16:31:59.590Z,0.78
2022-11-19T16:34:30.843Z,0.76
2022-11-19T16:37:00.828Z,0.68
2022-11-19T16:39:30.935Z,0.64
2022-11-19T16:42:19.394Z,0.62
2022-11-19T16:44:49.455Z,0.59
2022-11-19T16:47:22.976Z,0.59
2022-11-19T16:50:01.166Z,0.53
2022-11-19T16:52:44.434Z,0.57
2022-11-19T16:55:42.922Z,0.56
2022-11-19T16:58:17.968Z,0.55
2022-11-19T17:00:54.324Z,0.56
2022-11-19T17:03:34.470Z,0.60
2022-11-19T17:06:04.090Z,0.63
2022-11-19T17:08:36.407Z,0.61
2022-11-19T17:11:47.189Z,0.72
2022-11-19T17:14:21.280Z,0.70
2022-11-19T17:16:51.687Z,0.72
2022-11-19T17:19:32.622Z,0.78
2022-11-19T17:22:02.736Z,0.77
2022-11-19T17:24:37.983Z,0.78
2022-11-19T17:27:06.191Z,0.79
2022-11-19T17:29:34.362Z,0.81
2022-11-19T17:32:04.947Z,0.83
2022-11-19T17:34:37.007Z,0.86
2022-11-19T17:37:09.815Z,0.86
2022-11-19T17:39:39.216Z,0.85
2022-11-19T17:42:24.735Z,0.87
2022-11-19T17:44:52.958Z,0.88
2022-11-19T17:47:23.851Z,0.74
2022-11-19T17:49:53.193Z,0.86
2022-11-19T17:52:23.939Z,0.83
2022-11-19T17:54:54.965Z,0.86
2022-11-19T17:57:22.881Z,0.85
2022-11-19T17:59:51.147Z,0.80
2022-11-19T18:02:21.046Z,0.84
2022-11-19T18:04:49.662Z,0.86
2022-11-19T18:07:17.707Z,0.84
2022-11-19T18:09:45.934Z,0.83
2022-11-19T18:12:17.769Z,0.81
2022-11-19T18:14:46.072Z,0.85
2022-11-19T18:17:15.869Z,0.79
2022-11-19T18:19:44.025Z,0.79
2022-11-19T18:22:19.131Z,0.80
2022-11-19T18:24:48.320Z,0.76
2022-11-19T18:27:17.754Z,0.73
2022-11-19T18:29:45.729Z,0.75
2022-11-19T18:32:16.679Z,0.78
2022-11-19T18:34:45.497Z,0.70
2022-11-19T18:37:13.792Z,0.68
2022-11-19T18:39:41.747Z,0.66
2022-11-19T18:42:11.442Z,0.65
2022-11-19T18:44:41.694Z,0.66
2022-11-19T18:47:12.388Z,0.67
2022-11-19T18:49:40.973Z,0.69
2022-11-19T18:52:12.715Z,0.61
2022-11-19T18:54:40.807Z,0.65
2022-11-19T18:57:10.037Z,0.64
2022-11-19T18:59:38.343Z,0.67
2022-11-19T19:02:09.678Z,0.63
2022-11-19T19:04:37.782Z,0.61
2022-11-19T19:07:05.929Z,0.63
2022-11-19T19:09:33.992Z,0.59
2022-11-19T19:12:20.458Z,0.60
2022-11-19T19:14:51.548Z,0.61
2022-11-19T19:17:21.294Z,0.60
2022-11-19T19:19:50.124Z,0.60
2022-11-19T19:22:18.566Z,0.63
2022-11-19T19:24:47.003Z,0.60
2022-11-19T19:27:15.942Z,0.62
2022-11-19T19:29:43.959Z,0.59
2022-11-19T19:32:12.352Z,0.55
2022-11-19T19:34:41.743Z,0.57
2022-11-19T19:37:09.740Z,0.54
2022-11-19T19:39:37.736Z,0.54
2022-11-19T19:42:05.863Z,0.58
2022-11-19T19:44:34.057Z,0.54
2022-11-19T19:47:02.339Z,0.56
2022-11-19T19:49:33.461Z,0.55
2022-11-19T19:52:06.901Z,0.52
2022-11-19T19:54:34.933Z,0.54
2022-11-19T19:57:02.947Z,0.50
2022-11-19T19:59:31.425Z,0.48
2022-11-19T20:02:03.453Z,0.40
2022-11-19T20:04:33.410Z,0.39
2022-11-19T20:07:01.526Z,0.40
2022-11-19T20:09:30.927Z,0.42
2022-11-19T20:11:59.674Z,0.38
2022-11-19T20:14:27.650Z,0.36
2022-11-19T20:16:55.668Z,0.31
2022-11-19T20:19:23.904Z,0.33
2022-11-19T20:21:52.251Z,0.33
2022-11-19T20:24:21.813Z,0.33
2022-11-19T20:26:51.144Z,0.32
2022-11-19T20:29:21.729Z,0.31
2022-11-19T20:31:51.638Z,0.29
2022-11-19T20:34:19.966Z,0.29
2022-11-19T20:36:48.581Z,0.26
2022-11-19T20:39:16.643Z,0.29
2022-11-19T20:42:01.942Z,0.26
2022-11-19T20:44:31.417Z,0.26
2022-11-19T20:47:00.845Z,0.23
2022-11-19T20:49:30.491Z,0.20
2022-11-19T20:51:59.249Z,0.19
2022-11-19T20:54:28.044Z,0.21
2022-11-19T20:56:57.472Z,0.18
2022-11-19T20:59:26.655Z,0.21
2022-11-19T21:01:57.733Z,0.20
2022-11-19T21:04:27.108Z,0.22
2022-11-19T21:06:55.263Z,0.19
2022-11-19T21:09:23.877Z,0.15
2022-11-19T21:11:52.149Z,0.14
2022-11-19T21:14:20.213Z,0.19
2022-11-19T21:16:48.444Z,0.19
2022-11-19T21:19:17.925Z,0.16
2022-11-19T21:21:45.973Z,0.16
2022-11-19T21:24:14.062Z,0.15
2022-11-19T21:26:42.234Z,0.17
2022-11-19T21:29:10.287Z,0.14
2022-11-19T21:31:42.349Z,0.11
2022-11-19T21:34:12.270Z,0.08
2022-11-19T21:36:42.588Z,0.03
2022-11-19T21:39:11.401Z,0.06
2022-11-19T21:41:39.514Z,0.01
2022-11-19T21:44:08.039Z,0.01
2022-11-19T21:46:36.797Z,0.03
2022-11-19T21:49:05.485Z,-0.03
2022-11-19T21:51:33.529Z,-0.08
2022-11-19T21:54:02.857Z,-0.06
2022-11-19T21:56:35.538Z,-0.03
2022-11-19T21:59:06.590Z,-0.06
2022-11-19T22:01:34.783Z,-0.06
2022-11-19T22:04:02.918Z,-0.06
2022-11-19T22:06:31.426Z,-0.11
2022-11-19T22:08:59.422Z,-0.14
2022-11-19T22:11:32.061Z,-0.16
2022-11-19T22:14:02.115Z,-0.17
2022-11-19T22:16:30.990Z,-0.13
2022-11-19T22:18:59.134Z,-0.11
2022-11-19T22:21:27.626Z,-0.16
2022-11-19T22:23:55.651Z,-0.17
2022-11-19T22:26:23.617Z,-0.16
2022-11-19T22:28:53.022Z,-0.15
2022-11-19T22:31:20.942Z,-0.13
2022-11-19T22:33:51.675Z,-0.15
2022-11-19T22:36:21.218Z,-0.18
2022-11-19T22:38:49.852Z,-0.18
2022-11-19T22:41:19.770Z,-0.18
2022-11-19T22:43:48.177Z,-0.21
2022-11-19T22:46:18.672Z,-0.17
2022-11-19T22:48:46.640Z,-0.15
2022-11-19T22:51:16.844Z,-0.20
2022-11-19T22:53:45.427Z,-0.20
2022-11-19T22:56:15.144Z,-0.19
2022-11-19T22:58:43.213Z,-0.23
2022-11-19T23:01:18.418Z,-0.21
2022-11-19T23:03:47.279Z,-0.25
2022-11-19T23:06:15.942Z,-0.19
2022-11-19T23:08:44.439Z,-0.19
2022-11-19T23:11:14.463Z,-0.25
2022-11-19T23:13:43.332Z,-0.22
2022-11-19T23:16:13.347Z,-0.27
2022-11-19T23:18:46.802Z,-0.30
2022-11-19T23:21:16.428Z,-0.29
2022-11-19T23:23:44.389Z,-0.26
2022-11-19T23:26:14.821Z,-0.26
2022-11-19T23:28:43.309Z,-0.29
2022-11-19T23:31:15.376Z,-0.30
2022-11-19T23:33:45.248Z,-0.30
2022-11-19T23:36:15.077Z,-0.24
2022-11-19T23:38:43.861Z,-0.24
2022-11-19T23:41:14.010Z,-0.26
2022-11-19T23:43:42.841Z,-0.29
2022-11-19T23:46:13.003Z,-0.27
2022-11-19T23:48:42.426Z,-0.28
2022-11-19T23:51:13.955Z,-0.29
2022-11-19T23:53:42.663Z,-0.26
2022-11-19T23:56:11.566Z,-0.24
2022-11-19T23:58:40.146Z,-0.28
